sensor_id;sensor_type;location;lat;lon;timestamp;temperature;humidity
25074;DHT22;13066;52.042;5.648;2022-11-09T00:01:27;14.50;99.90
25074;DHT22;13066;52.042;5.648;2022-11-09T00:03:56;14.50;99.90
25074;DHT22;13066;52.042;5.648;2022-11-09T00:06:24;14.50;99.90
25074;DHT22;13066;52.042;5.648;2022-11-09T00:08:54;14.50;99.90
25074;DHT22;13066;52.042;5.648;2022-11-09T00:11:23;14.50;99.90
25074;DHT22;13066;52.042;5.648;2022-11-09T00:13:51;14.50;99.90
25074;DHT22;13066;52.042;5.648;2022-11-09T00:16:20;14.50;99.90
25074;DHT22;13066;52.042;5.648;2022-11-09T00:18:49;14.50;99.90
25074;DHT22;13066;52.042;5.648;2022-11-09T00:21:20;14.50;99.90
25074;DHT22;13066;52.042;5.648;2022-11-09T00:23:49;14.50;99.90
25074;DHT22;13066;52.042;5.648;2022-11-09T00:26:19;14.50;99.90
25074;DHT22;13066;52.042;5.648;2022-11-09T00:28:48;14.50;99.90
25074;DHT22;13066;52.042;5.648;2022-11-09T00:31:19;14.50;99.90
25074;DHT22;13066;52.042;5.648;2022-11-09T00:33:48;14.50;99.90
25074;DHT22;13066;52.042;5.648;2022-11-09T00:36:17;14.50;99.90
25074;DHT22;13066;52.042;5.648;2022-11-09T00:38:48;14.40;99.90
25074;DHT22;13066;52.042;5.648;2022-11-09T00:41:18;14.50;99.90
25074;DHT22;13066;52.042;5.648;2022-11-09T00:43:47;14.40;99.90
25074;DHT22;13066;52.042;5.648;2022-11-09T00:46:18;14.40;99.90
25074;DHT22;13066;52.042;5.648;2022-11-09T00:48:47;14.40;99.90
25074;DHT22;13066;52.042;5.648;2022-11-09T00:51:15;14.40;99.90
25074;DHT22;13066;52.042;5.648;2022-11-09T00:53:43;14.40;99.90
25074;DHT22;13066;52.042;5.648;2022-11-09T00:56:14;14.40;99.90
25074;DHT22;13066;52.042;5.648;2022-11-09T00:58:44;14.40;99.90
25074;DHT22;13066;52.042;5.648;2022-11-09T01:01:14;14.40;99.90
25074;DHT22;13066;52.042;5.648;2022-11-09T01:03:44;14.40;99.90
25074;DHT22;13066;52.042;5.648;2022-11-09T01:06:14;14.40;99.90
25074;DHT22;13066;52.042;5.648;2022-11-09T01:08:44;14.40;99.90
25074;DHT22;13066;52.042;5.648;2022-11-09T01:11:13;14.40;99.90
25074;DHT22;13066;52.042;5.648;2022-11-09T01:13:41;14.40;99.90
25074;DHT22;13066;52.042;5.648;2022-11-09T01:16:13;14.40;99.90
25074;DHT22;13066;52.042;5.648;2022-11-09T01:18:43;14.40;99.90
25074;DHT22;13066;52.042;5.648;2022-11-09T01:21:12;14.40;99.90
25074;DHT22;13066;52.042;5.648;2022-11-09T01:23:41;14.40;99.90
25074;DHT22;13066;52.042;5.648;2022-11-09T01:26:11;14.40;99.90
25074;DHT22;13066;52.042;5.648;2022-11-09T01:28:42;14.40;99.90
25074;DHT22;13066;52.042;5.648;2022-11-09T01:31:15;14.40;99.90
25074;DHT22;13066;52.042;5.648;2022-11-09T01:33:44;14.30;99.90
25074;DHT22;13066;52.042;5.648;2022-11-09T01:36:16;14.30;99.90
25074;DHT22;13066;52.042;5.648;2022-11-09T01:38:45;14.30;99.90
25074;DHT22;13066;52.042;5.648;2022-11-09T01:41:15;14.30;99.90
25074;DHT22;13066;52.042;5.648;2022-11-09T01:44:00;14.20;99.90
25074;DHT22;13066;52.042;5.648;2022-11-09T01:46:34;14.20;99.90
25074;DHT22;13066;52.042;5.648;2022-11-09T01:49:03;14.20;99.90
25074;DHT22;13066;52.042;5.648;2022-11-09T01:51:37;14.20;99.90
25074;DHT22;13066;52.042;5.648;2022-11-09T01:54:09;14.10;99.90
25074;DHT22;13066;52.042;5.648;2022-11-09T01:56:39;14.10;99.90
25074;DHT22;13066;52.042;5.648;2022-11-09T01:59:10;14.10;99.90
25074;DHT22;13066;52.042;5.648;2022-11-09T02:01:43;14.10;99.90
25074;DHT22;13066;52.042;5.648;2022-11-09T02:04:14;14.10;99.90
25074;DHT22;13066;52.042;5.648;2022-11-09T02:06:46;14.10;99.90
25074;DHT22;13066;52.042;5.648;2022-11-09T02:09:22;14.10;99.90
25074;DHT22;13066;52.042;5.648;2022-11-09T02:11:52;14.10;99.90
25074;DHT22;13066;52.042;5.648;2022-11-09T02:14:21;14.10;99.90
25074;DHT22;13066;52.042;5.648;2022-11-09T02:16:52;14.10;99.90
25074;DHT22;13066;52.042;5.648;2022-11-09T02:19:20;14.10;99.90
25074;DHT22;13066;52.042;5.648;2022-11-09T02:21:50;14.10;99.90
25074;DHT22;13066;52.042;5.648;2022-11-09T02:24:18;14.10;99.90
25074;DHT22;13066;52.042;5.648;2022-11-09T02:26:48;14.20;99.90
25074;DHT22;13066;52.042;5.648;2022-11-09T02:29:19;14.10;99.90
25074;DHT22;13066;52.042;5.648;2022-11-09T02:31:52;14.10;99.90
25074;DHT22;13066;52.042;5.648;2022-11-09T02:34:23;14.10;99.90
25074;DHT22;13066;52.042;5.648;2022-11-09T02:36:52;14.10;99.90
25074;DHT22;13066;52.042;5.648;2022-11-09T02:39:23;14.10;99.90
25074;DHT22;13066;52.042;5.648;2022-11-09T02:41:53;14.10;99.90
25074;DHT22;13066;52.042;5.648;2022-11-09T02:44:22;14.10;99.90
25074;DHT22;13066;52.042;5.648;2022-11-09T02:46:53;14.10;99.90
25074;DHT22;13066;52.042;5.648;2022-11-09T02:49:21;14.10;99.90
25074;DHT22;13066;52.042;5.648;2022-11-09T02:51:49;14.10;99.90
25074;DHT22;13066;52.042;5.648;2022-11-09T02:54:18;14.10;99.90
25074;DHT22;13066;52.042;5.648;2022-11-09T02:56:46;14.00;99.90
25074;DHT22;13066;52.042;5.648;2022-11-09T02:59:15;14.00;99.90
25074;DHT22;13066;52.042;5.648;2022-11-09T03:01:43;14.00;99.90
25074;DHT22;13066;52.042;5.648;2022-11-09T03:04:11;14.00;99.90
25074;DHT22;13066;52.042;5.648;2022-11-09T03:06:39;14.00;99.90
25074;DHT22;13066;52.042;5.648;2022-11-09T03:09:08;14.00;99.90
25074;DHT22;13066;52.042;5.648;2022-11-09T03:11:39;14.00;99.90
25074;DHT22;13066;52.042;5.648;2022-11-09T03:14:08;14.00;99.90
25074;DHT22;13066;52.042;5.648;2022-11-09T03:16:37;14.00;99.90
25074;DHT22;13066;52.042;5.648;2022-11-09T03:19:06;14.00;99.90
25074;DHT22;13066;52.042;5.648;2022-11-09T03:21:34;14.00;99.90
25074;DHT22;13066;52.042;5.648;2022-11-09T03:24:02;14.00;99.90
25074;DHT22;13066;52.042;5.648;2022-11-09T03:26:31;14.00;99.90
25074;DHT22;13066;52.042;5.648;2022-11-09T03:29:01;14.00;99.90
25074;DHT22;13066;52.042;5.648;2022-11-09T03:31:29;14.00;99.90
25074;DHT22;13066;52.042;5.648;2022-11-09T03:33:57;14.00;99.90
25074;DHT22;13066;52.042;5.648;2022-11-09T03:36:26;14.00;99.90
25074;DHT22;13066;52.042;5.648;2022-11-09T03:38:53;14.00;99.90
25074;DHT22;13066;52.042;5.648;2022-11-09T03:41:21;14.00;99.90
25074;DHT22;13066;52.042;5.648;2022-11-09T03:43:49;14.00;99.90
25074;DHT22;13066;52.042;5.648;2022-11-09T03:46:19;14.00;99.90
25074;DHT22;13066;52.042;5.648;2022-11-09T03:48:47;14.00;99.90
25074;DHT22;13066;52.042;5.648;2022-11-09T03:51:15;14.10;99.90
25074;DHT22;13066;52.042;5.648;2022-11-09T03:53:43;14.10;99.90
25074;DHT22;13066;52.042;5.648;2022-11-09T03:56:11;14.00;99.90
25074;DHT22;13066;52.042;5.648;2022-11-09T03:58:39;14.00;99.90
25074;DHT22;13066;52.042;5.648;2022-11-09T04:01:07;14.00;99.90
25074;DHT22;13066;52.042;5.648;2022-11-09T04:03:38;14.00;99.90
25074;DHT22;13066;52.042;5.648;2022-11-09T04:06:06;14.00;99.90
25074;DHT22;13066;52.042;5.648;2022-11-09T04:08:36;13.90;99.90
25074;DHT22;13066;52.042;5.648;2022-11-09T04:11:05;13.90;99.90
25074;DHT22;13066;52.042;5.648;2022-11-09T04:13:33;13.90;99.90
25074;DHT22;13066;52.042;5.648;2022-11-09T04:16:01;13.90;99.90
25074;DHT22;13066;52.042;5.648;2022-11-09T04:18:30;13.90;99.90
25074;DHT22;13066;52.042;5.648;2022-11-09T04:20:59;13.90;99.90
25074;DHT22;13066;52.042;5.648;2022-11-09T04:23:27;13.80;99.90
25074;DHT22;13066;52.042;5.648;2022-11-09T04:25:57;13.80;99.90
25074;DHT22;13066;52.042;5.648;2022-11-09T04:28:26;13.80;99.90
25074;DHT22;13066;52.042;5.648;2022-11-09T04:30:54;13.80;99.90
25074;DHT22;13066;52.042;5.648;2022-11-09T04:33:26;13.80;99.90
25074;DHT22;13066;52.042;5.648;2022-11-09T04:35:54;13.70;99.90
25074;DHT22;13066;52.042;5.648;2022-11-09T04:38:23;13.70;99.90
25074;DHT22;13066;52.042;5.648;2022-11-09T04:40:52;13.70;99.90
25074;DHT22;13066;52.042;5.648;2022-11-09T04:43:20;13.70;99.90
25074;DHT22;13066;52.042;5.648;2022-11-09T04:45:49;13.60;99.90
25074;DHT22;13066;52.042;5.648;2022-11-09T04:48:17;13.60;99.90
25074;DHT22;13066;52.042;5.648;2022-11-09T04:50:45;13.60;99.90
25074;DHT22;13066;52.042;5.648;2022-11-09T04:53:14;13.60;99.90
25074;DHT22;13066;52.042;5.648;2022-11-09T04:55:43;13.60;99.90
25074;DHT22;13066;52.042;5.648;2022-11-09T04:58:11;13.60;99.90
25074;DHT22;13066;52.042;5.648;2022-11-09T05:00:41;13.60;99.90
25074;DHT22;13066;52.042;5.648;2022-11-09T05:03:09;13.60;99.90
25074;DHT22;13066;52.042;5.648;2022-11-09T05:05:38;13.60;99.90
25074;DHT22;13066;52.042;5.648;2022-11-09T05:08:15;13.60;99.90
25074;DHT22;13066;52.042;5.648;2022-11-09T05:10:45;13.60;99.90
25074;DHT22;13066;52.042;5.648;2022-11-09T05:13:13;13.60;99.90
25074;DHT22;13066;52.042;5.648;2022-11-09T05:15:41;13.50;99.90
25074;DHT22;13066;52.042;5.648;2022-11-09T05:18:09;13.50;99.90
25074;DHT22;13066;52.042;5.648;2022-11-09T05:20:40;13.50;99.90
25074;DHT22;13066;52.042;5.648;2022-11-09T05:23:08;13.50;99.90
25074;DHT22;13066;52.042;5.648;2022-11-09T05:26:11;13.50;99.90
25074;DHT22;13066;52.042;5.648;2022-11-09T05:28:40;13.50;99.90
25074;DHT22;13066;52.042;5.648;2022-11-09T05:31:08;13.50;99.90
25074;DHT22;13066;52.042;5.648;2022-11-09T05:33:36;13.40;99.90
25074;DHT22;13066;52.042;5.648;2022-11-09T05:36:05;13.40;99.90
25074;DHT22;13066;52.042;5.648;2022-11-09T05:38:33;13.40;99.90
25074;DHT22;13066;52.042;5.648;2022-11-09T05:41:01;13.40;99.90
25074;DHT22;13066;52.042;5.648;2022-11-09T05:43:30;13.30;99.90
25074;DHT22;13066;52.042;5.648;2022-11-09T05:45:58;13.40;99.90
25074;DHT22;13066;52.042;5.648;2022-11-09T05:48:32;13.30;99.90
25074;DHT22;13066;52.042;5.648;2022-11-09T05:51:01;13.30;99.90
25074;DHT22;13066;52.042;5.648;2022-11-09T05:53:29;13.30;99.90
25074;DHT22;13066;52.042;5.648;2022-11-09T05:56:01;13.30;99.90
25074;DHT22;13066;52.042;5.648;2022-11-09T05:58:31;13.30;99.90
25074;DHT22;13066;52.042;5.648;2022-11-09T06:01:03;13.30;99.90
25074;DHT22;13066;52.042;5.648;2022-11-09T06:03:32;13.30;99.90
25074;DHT22;13066;52.042;5.648;2022-11-09T06:06:01;13.30;99.90
25074;DHT22;13066;52.042;5.648;2022-11-09T06:08:34;13.30;99.90
25074;DHT22;13066;52.042;5.648;2022-11-09T06:11:04;13.30;99.90
25074;DHT22;13066;52.042;5.648;2022-11-09T06:13:35;13.30;99.90
25074;DHT22;13066;52.042;5.648;2022-11-09T06:16:04;13.30;99.90
25074;DHT22;13066;52.042;5.648;2022-11-09T06:18:35;13.30;99.90
25074;DHT22;13066;52.042;5.648;2022-11-09T06:21:04;13.30;99.90
25074;DHT22;13066;52.042;5.648;2022-11-09T06:23:33;13.30;99.90
25074;DHT22;13066;52.042;5.648;2022-11-09T06:26:04;13.30;99.90
25074;DHT22;13066;52.042;5.648;2022-11-09T06:28:34;13.20;99.90
25074;DHT22;13066;52.042;5.648;2022-11-09T06:31:05;13.20;99.90
25074;DHT22;13066;52.042;5.648;2022-11-09T06:33:34;13.20;99.90
25074;DHT22;13066;52.042;5.648;2022-11-09T06:36:04;13.20;99.90
25074;DHT22;13066;52.042;5.648;2022-11-09T06:38:33;13.20;99.90
25074;DHT22;13066;52.042;5.648;2022-11-09T06:41:00;13.20;99.90
25074;DHT22;13066;52.042;5.648;2022-11-09T06:43:29;13.20;99.90
25074;DHT22;13066;52.042;5.648;2022-11-09T06:46:03;13.20;99.90
25074;DHT22;13066;52.042;5.648;2022-11-09T06:48:31;13.20;99.90
25074;DHT22;13066;52.042;5.648;2022-11-09T06:51:00;13.20;99.90
25074;DHT22;13066;52.042;5.648;2022-11-09T06:53:30;13.10;99.90
25074;DHT22;13066;52.042;5.648;2022-11-09T06:55:59;13.10;99.90
25074;DHT22;13066;52.042;5.648;2022-11-09T06:58:28;13.10;99.90
25074;DHT22;13066;52.042;5.648;2022-11-09T07:00:57;13.10;99.90
25074;DHT22;13066;52.042;5.648;2022-11-09T07:03:26;13.10;99.90
25074;DHT22;13066;52.042;5.648;2022-11-09T07:05:54;13.10;99.90
25074;DHT22;13066;52.042;5.648;2022-11-09T07:08:23;13.10;99.90
25074;DHT22;13066;52.042;5.648;2022-11-09T07:10:51;13.10;99.90
25074;DHT22;13066;52.042;5.648;2022-11-09T07:13:19;13.10;99.90
25074;DHT22;13066;52.042;5.648;2022-11-09T07:15:52;13.10;99.90
25074;DHT22;13066;52.042;5.648;2022-11-09T07:18:21;13.10;99.90
25074;DHT22;13066;52.042;5.648;2022-11-09T07:20:51;13.10;99.90
25074;DHT22;13066;52.042;5.648;2022-11-09T07:23:19;13.10;99.90
25074;DHT22;13066;52.042;5.648;2022-11-09T07:25:47;13.00;99.90
25074;DHT22;13066;52.042;5.648;2022-11-09T07:28:15;13.00;99.90
25074;DHT22;13066;52.042;5.648;2022-11-09T07:30:43;13.10;99.90
25074;DHT22;13066;52.042;5.648;2022-11-09T07:33:14;13.10;99.90
25074;DHT22;13066;52.042;5.648;2022-11-09T07:35:43;13.00;99.90
25074;DHT22;13066;52.042;5.648;2022-11-09T07:38:13;13.00;99.90
25074;DHT22;13066;52.042;5.648;2022-11-09T07:40:42;13.10;99.90
25074;DHT22;13066;52.042;5.648;2022-11-09T07:43:11;13.10;99.90
25074;DHT22;13066;52.042;5.648;2022-11-09T07:45:39;13.10;99.90
25074;DHT22;13066;52.042;5.648;2022-11-09T07:48:09;13.10;99.90
25074;DHT22;13066;52.042;5.648;2022-11-09T07:50:38;13.10;99.90
25074;DHT22;13066;52.042;5.648;2022-11-09T07:53:07;13.10;99.90
25074;DHT22;13066;52.042;5.648;2022-11-09T07:55:38;13.20;99.90
25074;DHT22;13066;52.042;5.648;2022-11-09T07:58:09;13.20;99.90
25074;DHT22;13066;52.042;5.648;2022-11-09T08:00:39;13.20;99.90
25074;DHT22;13066;52.042;5.648;2022-11-09T08:03:08;13.20;99.90
25074;DHT22;13066;52.042;5.648;2022-11-09T08:05:36;13.20;99.90
25074;DHT22;13066;52.042;5.648;2022-11-09T08:08:09;13.20;99.90
25074;DHT22;13066;52.042;5.648;2022-11-09T08:10:39;13.20;99.90
25074;DHT22;13066;52.042;5.648;2022-11-09T08:13:10;13.20;99.90
25074;DHT22;13066;52.042;5.648;2022-11-09T08:15:39;13.30;99.90
25074;DHT22;13066;52.042;5.648;2022-11-09T08:18:11;13.30;99.90
25074;DHT22;13066;52.042;5.648;2022-11-09T08:20:40;13.30;99.90
25074;DHT22;13066;52.042;5.648;2022-11-09T08:23:10;13.30;99.90
25074;DHT22;13066;52.042;5.648;2022-11-09T08:25:41;13.30;99.90
25074;DHT22;13066;52.042;5.648;2022-11-09T08:28:09;13.30;99.90
25074;DHT22;13066;52.042;5.648;2022-11-09T08:30:41;13.30;99.90
25074;DHT22;13066;52.042;5.648;2022-11-09T08:33:10;13.30;99.90
25074;DHT22;13066;52.042;5.648;2022-11-09T08:35:38;13.40;99.90
25074;DHT22;13066;52.042;5.648;2022-11-09T08:38:07;13.40;99.90
25074;DHT22;13066;52.042;5.648;2022-11-09T08:40:36;13.40;99.90
25074;DHT22;13066;52.042;5.648;2022-11-09T08:43:06;13.40;99.90
25074;DHT22;13066;52.042;5.648;2022-11-09T08:45:37;13.40;99.90
25074;DHT22;13066;52.042;5.648;2022-11-09T08:48:06;13.50;99.90
25074;DHT22;13066;52.042;5.648;2022-11-09T08:50:35;13.50;99.90
25074;DHT22;13066;52.042;5.648;2022-11-09T08:53:05;13.50;99.90
25074;DHT22;13066;52.042;5.648;2022-11-09T08:55:34;13.50;99.90
25074;DHT22;13066;52.042;5.648;2022-11-09T08:58:03;13.50;99.90
25074;DHT22;13066;52.042;5.648;2022-11-09T09:00:33;13.60;99.90
25074;DHT22;13066;52.042;5.648;2022-11-09T09:03:02;13.60;99.90
25074;DHT22;13066;52.042;5.648;2022-11-09T09:05:32;13.60;99.90
25074;DHT22;13066;52.042;5.648;2022-11-09T09:08:02;13.60;99.90
25074;DHT22;13066;52.042;5.648;2022-11-09T09:10:30;13.60;99.90
25074;DHT22;13066;52.042;5.648;2022-11-09T09:13:01;13.60;99.90
25074;DHT22;13066;52.042;5.648;2022-11-09T09:15:29;13.70;99.90
25074;DHT22;13066;52.042;5.648;2022-11-09T09:17:59;13.70;99.90
25074;DHT22;13066;52.042;5.648;2022-11-09T09:20:28;13.70;99.90
25074;DHT22;13066;52.042;5.648;2022-11-09T09:22:57;13.70;99.90
25074;DHT22;13066;52.042;5.648;2022-11-09T09:25:26;13.70;99.90
25074;DHT22;13066;52.042;5.648;2022-11-09T09:27:54;13.80;99.90
25074;DHT22;13066;52.042;5.648;2022-11-09T09:30:23;13.80;99.90
25074;DHT22;13066;52.042;5.648;2022-11-09T09:32:51;13.80;99.90
25074;DHT22;13066;52.042;5.648;2022-11-09T09:35:21;13.80;99.90
25074;DHT22;13066;52.042;5.648;2022-11-09T09:37:49;13.90;99.90
25074;DHT22;13066;52.042;5.648;2022-11-09T09:40:23;14.00;99.90
25074;DHT22;13066;52.042;5.648;2022-11-09T09:42:53;14.00;99.90
25074;DHT22;13066;52.042;5.648;2022-11-09T09:45:24;14.10;99.90
25074;DHT22;13066;52.042;5.648;2022-11-09T09:47:59;14.10;99.90
25074;DHT22;13066;52.042;5.648;2022-11-09T09:50:39;14.20;99.90
25074;DHT22;13066;52.042;5.648;2022-11-09T09:53:15;14.20;99.90
25074;DHT22;13066;52.042;5.648;2022-11-09T09:55:54;14.30;99.90
25074;DHT22;13066;52.042;5.648;2022-11-09T09:58:25;14.30;99.90
25074;DHT22;13066;52.042;5.648;2022-11-09T10:00:56;14.40;99.90
25074;DHT22;13066;52.042;5.648;2022-11-09T10:03:25;14.50;99.90
25074;DHT22;13066;52.042;5.648;2022-11-09T10:06:00;14.60;99.90
25074;DHT22;13066;52.042;5.648;2022-11-09T10:08:40;14.70;99.90
25074;DHT22;13066;52.042;5.648;2022-11-09T10:11:18;14.70;99.90
25074;DHT22;13066;52.042;5.648;2022-11-09T10:14:03;14.80;99.90
25074;DHT22;13066;52.042;5.648;2022-11-09T10:16:39;14.90;99.90
25074;DHT22;13066;52.042;5.648;2022-11-09T10:19:34;14.90;99.90
25074;DHT22;13066;52.042;5.648;2022-11-09T10:22:11;15.00;99.90
25074;DHT22;13066;52.042;5.648;2022-11-09T10:24:49;15.00;99.90
25074;DHT22;13066;52.042;5.648;2022-11-09T10:27:45;15.10;99.90
25074;DHT22;13066;52.042;5.648;2022-11-09T10:30:16;15.00;99.90
25074;DHT22;13066;52.042;5.648;2022-11-09T10:32:48;15.10;99.90
25074;DHT22;13066;52.042;5.648;2022-11-09T10:35:19;15.10;99.90
25074;DHT22;13066;52.042;5.648;2022-11-09T10:37:50;15.20;99.90
25074;DHT22;13066;52.042;5.648;2022-11-09T10:40:21;15.20;99.90
25074;DHT22;13066;52.042;5.648;2022-11-09T10:42:53;15.20;99.90
25074;DHT22;13066;52.042;5.648;2022-11-09T10:45:28;15.30;99.90
25074;DHT22;13066;52.042;5.648;2022-11-09T10:47:57;15.30;99.90
25074;DHT22;13066;52.042;5.648;2022-11-09T10:50:29;15.30;99.90
25074;DHT22;13066;52.042;5.648;2022-11-09T10:53:13;15.30;99.90
25074;DHT22;13066;52.042;5.648;2022-11-09T10:56:05;15.30;99.90
25074;DHT22;13066;52.042;5.648;2022-11-09T10:58:35;15.20;99.90
25074;DHT22;13066;52.042;5.648;2022-11-09T11:01:10;15.20;99.90
25074;DHT22;13066;52.042;5.648;2022-11-09T11:03:41;15.20;99.90
25074;DHT22;13066;52.042;5.648;2022-11-09T11:06:14;15.20;99.90
25074;DHT22;13066;52.042;5.648;2022-11-09T11:08:48;15.20;99.90
25074;DHT22;13066;52.042;5.648;2022-11-09T11:11:22;15.20;99.90
25074;DHT22;13066;52.042;5.648;2022-11-09T11:14:13;15.20;99.90
25074;DHT22;13066;52.042;5.648;2022-11-09T11:16:46;15.30;99.90
25074;DHT22;13066;52.042;5.648;2022-11-09T11:19:33;15.30;99.90
25074;DHT22;13066;52.042;5.648;2022-11-09T11:22:23;15.40;99.90
25074;DHT22;13066;52.042;5.648;2022-11-09T11:24:56;15.40;99.90
25074;DHT22;13066;52.042;5.648;2022-11-09T11:27:29;15.50;99.90
25074;DHT22;13066;52.042;5.648;2022-11-09T11:30:04;15.50;99.90
25074;DHT22;13066;52.042;5.648;2022-11-09T11:32:32;15.50;99.90
25074;DHT22;13066;52.042;5.648;2022-11-09T11:35:02;15.50;99.90
25074;DHT22;13066;52.042;5.648;2022-11-09T11:37:41;15.50;99.90
25074;DHT22;13066;52.042;5.648;2022-11-09T11:40:19;15.50;99.90
25074;DHT22;13066;52.042;5.648;2022-11-09T11:46:02;15.50;99.90
25074;DHT22;13066;52.042;5.648;2022-11-09T11:48:47;15.40;99.90
25074;DHT22;13066;52.042;5.648;2022-11-09T11:51:20;15.30;99.90
25074;DHT22;13066;52.042;5.648;2022-11-09T11:54:02;15.30;99.90
25074;DHT22;13066;52.042;5.648;2022-11-09T11:56:37;15.40;99.90
25074;DHT22;13066;52.042;5.648;2022-11-09T11:59:36;15.30;99.90
25074;DHT22;13066;52.042;5.648;2022-11-09T12:02:26;15.30;99.90
25074;DHT22;13066;52.042;5.648;2022-11-09T12:05:29;15.30;99.90
25074;DHT22;13066;52.042;5.648;2022-11-09T12:08:06;15.30;99.90
25074;DHT22;13066;52.042;5.648;2022-11-09T12:10:47;15.20;99.90
25074;DHT22;13066;52.042;5.648;2022-11-09T12:13:33;15.20;99.90
25074;DHT22;13066;52.042;5.648;2022-11-09T12:16:10;15.30;99.90
25074;DHT22;13066;52.042;5.648;2022-11-09T12:18:49;15.30;99.90
25074;DHT22;13066;52.042;5.648;2022-11-09T12:21:22;15.30;99.90
25074;DHT22;13066;52.042;5.648;2022-11-09T12:24:06;15.40;99.90
25074;DHT22;13066;52.042;5.648;2022-11-09T12:26:57;15.50;99.90
25074;DHT22;13066;52.042;5.648;2022-11-09T12:29:57;15.40;99.90
25074;DHT22;13066;52.042;5.648;2022-11-09T12:32:36;15.40;99.90
25074;DHT22;13066;52.042;5.648;2022-11-09T12:35:17;15.40;99.90
25074;DHT22;13066;52.042;5.648;2022-11-09T12:37:51;15.50;99.90
25074;DHT22;13066;52.042;5.648;2022-11-09T12:40:24;15.50;99.90
25074;DHT22;13066;52.042;5.648;2022-11-09T12:43:04;15.50;99.90
25074;DHT22;13066;52.042;5.648;2022-11-09T12:45:46;15.50;99.90
25074;DHT22;13066;52.042;5.648;2022-11-09T12:48:21;15.50;99.90
25074;DHT22;13066;52.042;5.648;2022-11-09T12:50:51;15.50;99.90
25074;DHT22;13066;52.042;5.648;2022-11-09T12:53:23;15.50;99.90
25074;DHT22;13066;52.042;5.648;2022-11-09T12:55:56;15.50;99.90
25074;DHT22;13066;52.042;5.648;2022-11-09T12:58:26;15.60;99.90
25074;DHT22;13066;52.042;5.648;2022-11-09T13:00:59;15.60;99.90
25074;DHT22;13066;52.042;5.648;2022-11-09T13:03:29;15.60;99.90
25074;DHT22;13066;52.042;5.648;2022-11-09T13:06:13;15.60;99.90
25074;DHT22;13066;52.042;5.648;2022-11-09T13:08:54;15.60;99.90
25074;DHT22;13066;52.042;5.648;2022-11-09T13:11:34;15.60;99.90
25074;DHT22;13066;52.042;5.648;2022-11-09T13:14:36;15.60;99.90
25074;DHT22;13066;52.042;5.648;2022-11-09T13:20:41;15.50;99.90
25074;DHT22;13066;52.042;5.648;2022-11-09T13:23:36;15.40;99.90
25074;DHT22;13066;52.042;5.648;2022-11-09T13:26:54;15.40;99.90
25074;DHT22;13066;52.042;5.648;2022-11-09T13:29:24;15.40;99.90
25074;DHT22;13066;52.042;5.648;2022-11-09T13:32:26;15.40;99.90
25074;DHT22;13066;52.042;5.648;2022-11-09T13:34:56;15.50;99.90
25074;DHT22;13066;52.042;5.648;2022-11-09T13:37:52;15.40;99.90
25074;DHT22;13066;52.042;5.648;2022-11-09T13:40:43;15.50;99.90
25074;DHT22;13066;52.042;5.648;2022-11-09T13:43:17;15.50;99.90
25074;DHT22;13066;52.042;5.648;2022-11-09T13:45:48;15.40;99.90
25074;DHT22;13066;52.042;5.648;2022-11-09T13:48:30;15.40;99.90
25074;DHT22;13066;52.042;5.648;2022-11-09T13:51:02;15.40;99.90
25074;DHT22;13066;52.042;5.648;2022-11-09T13:53:52;15.50;99.90
25074;DHT22;13066;52.042;5.648;2022-11-09T13:56:30;15.50;99.90
25074;DHT22;13066;52.042;5.648;2022-11-09T13:59:04;15.50;99.90
25074;DHT22;13066;52.042;5.648;2022-11-09T14:01:34;15.50;99.90
25074;DHT22;13066;52.042;5.648;2022-11-09T14:04:04;15.50;99.90
25074;DHT22;13066;52.042;5.648;2022-11-09T14:06:32;15.50;99.90
25074;DHT22;13066;52.042;5.648;2022-11-09T14:09:02;15.60;99.90
25074;DHT22;13066;52.042;5.648;2022-11-09T14:11:58;15.60;99.90
25074;DHT22;13066;52.042;5.648;2022-11-09T14:17:35;15.60;99.90
25074;DHT22;13066;52.042;5.648;2022-11-09T14:20:11;15.50;99.90
25074;DHT22;13066;52.042;5.648;2022-11-09T14:22:42;15.50;99.90
25074;DHT22;13066;52.042;5.648;2022-11-09T14:25:17;15.50;99.80
25074;DHT22;13066;52.042;5.648;2022-11-09T14:27:46;15.50;99.90
25074;DHT22;13066;52.042;5.648;2022-11-09T14:30:20;15.50;99.90
25074;DHT22;13066;52.042;5.648;2022-11-09T14:32:50;15.50;99.90
25074;DHT22;13066;52.042;5.648;2022-11-09T14:35:24;15.40;99.70
25074;DHT22;13066;52.042;5.648;2022-11-09T14:37:55;15.50;99.70
25074;DHT22;13066;52.042;5.648;2022-11-09T14:40:27;15.50;99.80
25074;DHT22;13066;52.042;5.648;2022-11-09T14:42:58;15.40;99.80
25074;DHT22;13066;52.042;5.648;2022-11-09T14:45:28;15.40;99.90
25074;DHT22;13066;52.042;5.648;2022-11-09T14:47:59;15.40;99.90
25074;DHT22;13066;52.042;5.648;2022-11-09T14:50:29;15.40;99.90
25074;DHT22;13066;52.042;5.648;2022-11-09T14:53:00;15.40;99.90
25074;DHT22;13066;52.042;5.648;2022-11-09T14:55:32;15.30;99.90
25074;DHT22;13066;52.042;5.648;2022-11-09T14:58:02;15.30;99.90
25074;DHT22;13066;52.042;5.648;2022-11-09T15:00:32;15.20;99.90
25074;DHT22;13066;52.042;5.648;2022-11-09T15:03:21;15.20;99.90
25074;DHT22;13066;52.042;5.648;2022-11-09T15:06:01;15.20;99.90
25074;DHT22;13066;52.042;5.648;2022-11-09T15:08:30;15.20;99.90
25074;DHT22;13066;52.042;5.648;2022-11-09T15:11:03;15.20;99.90
25074;DHT22;13066;52.042;5.648;2022-11-09T15:13:33;15.10;99.90
25074;DHT22;13066;52.042;5.648;2022-11-09T15:16:04;15.10;99.90
25074;DHT22;13066;52.042;5.648;2022-11-09T15:18:35;15.10;99.90
25074;DHT22;13066;52.042;5.648;2022-11-09T15:21:11;15.00;99.90
25074;DHT22;13066;52.042;5.648;2022-11-09T15:23:42;15.00;99.90
25074;DHT22;13066;52.042;5.648;2022-11-09T15:26:34;15.00;99.90
25074;DHT22;13066;52.042;5.648;2022-11-09T15:29:28;15.00;99.90
25074;DHT22;13066;52.042;5.648;2022-11-09T15:31:58;15.00;99.90
25074;DHT22;13066;52.042;5.648;2022-11-09T15:34:34;14.90;99.90
25074;DHT22;13066;52.042;5.648;2022-11-09T15:37:03;14.90;99.90
25074;DHT22;13066;52.042;5.648;2022-11-09T15:39:31;14.90;99.90
25074;DHT22;13066;52.042;5.648;2022-11-09T15:41:59;14.90;99.90
25074;DHT22;13066;52.042;5.648;2022-11-09T15:44:29;14.90;99.90
25074;DHT22;13066;52.042;5.648;2022-11-09T15:46:57;14.90;99.90
25074;DHT22;13066;52.042;5.648;2022-11-09T15:49:28;14.90;99.90
25074;DHT22;13066;52.042;5.648;2022-11-09T15:51:56;14.90;99.90
25074;DHT22;13066;52.042;5.648;2022-11-09T15:54:30;14.90;99.90
25074;DHT22;13066;52.042;5.648;2022-11-09T15:57:00;14.80;99.90
25074;DHT22;13066;52.042;5.648;2022-11-09T15:59:31;14.90;99.90
25074;DHT22;13066;52.042;5.648;2022-11-09T16:02:01;14.80;99.90
25074;DHT22;13066;52.042;5.648;2022-11-09T16:04:29;14.90;99.90
25074;DHT22;13066;52.042;5.648;2022-11-09T16:06:58;14.90;99.90
25074;DHT22;13066;52.042;5.648;2022-11-09T16:09:27;14.80;99.90
25074;DHT22;13066;52.042;5.648;2022-11-09T16:11:55;14.90;99.90